createdAt,value
2023-03-15T00:00:56.289Z,5.63
2023-03-15T00:03:24.437Z,3.53
2023-03-15T00:05:53.948Z,9.50
2023-03-15T00:08:21.797Z,6.57
2023-03-15T00:10:48.831Z,6.78
2023-03-15T00:13:16.171Z,7.20
2023-03-15T00:15:51.774Z,6.50
2023-03-15T00:18:19.527Z,6.07
2023-03-15T00:20:47.157Z,6.13
2023-03-15T00:23:14.695Z,6.70
2023-03-15T00:25:44.186Z,4.90
2023-03-15T00:28:10.859Z,5.10
2023-03-15T00:30:37.234Z,3.73
2023-03-15T00:33:05.882Z,6.00
2023-03-15T00:35:36.144Z,10.02
2023-03-15T00:38:04.466Z,5.43
2023-03-15T00:40:31.447Z,5.25
2023-03-15T00:42:57.833Z,6.83
2023-03-15T00:45:24.355Z,5.63
2023-03-15T00:47:52.319Z,6.70
2023-03-15T00:50:19.229Z,3.38
2023-03-15T00:52:45.828Z,7.40
2023-03-15T00:55:14.446Z,6.10
2023-03-15T00:57:42.527Z,3.35
2023-03-15T01:00:20.479Z,6.82
2023-03-15T01:02:47.607Z,5.70
2023-03-15T01:05:14.192Z,5.93
2023-03-15T01:07:41.009Z,7.47
2023-03-15T01:10:08.412Z,7.53
2023-03-15T01:12:34.951Z,6.88
2023-03-15T01:15:03.656Z,7.45
2023-03-15T01:17:30.292Z,4.95
2023-03-15T01:19:56.667Z,7.43
2023-03-15T01:22:23.018Z,4.85
2023-03-15T01:24:49.443Z,5.07
2023-03-15T01:27:15.945Z,6.05
2023-03-15T01:29:42.324Z,8.45
2023-03-15T01:32:08.932Z,5.17
2023-03-15T01:34:36.469Z,4.15
2023-03-15T01:37:03.436Z,7.47
2023-03-15T01:39:30.722Z,3.60
2023-03-15T01:41:57.438Z,5.60
2023-03-15T01:44:24.097Z,4.23
2023-03-15T01:46:50.808Z,5.97
2023-03-15T01:49:27.163Z,8.32
2023-03-15T01:51:57.564Z,7.60
2023-03-15T01:54:32.464Z,7.00
2023-03-15T01:57:09.661Z,4.67
2023-03-15T01:59:43.034Z,7.90
2023-03-15T02:02:09.886Z,6.57
2023-03-15T02:04:41.662Z,5.75
2023-03-15T02:07:09.800Z,5.75
2023-03-15T02:09:44.273Z,6.13
2023-03-15T02:12:11.313Z,4.10
2023-03-15T02:14:38.425Z,4.70
2023-03-15T02:17:04.894Z,5.47
2023-03-15T02:19:48.092Z,4.70
2023-03-15T02:22:28.140Z,5.97
2023-03-15T02:25:01.313Z,7.07
2023-03-15T02:27:34.489Z,4.55
2023-03-15T02:30:03.345Z,2.92
2023-03-15T02:32:30.638Z,4.00
2023-03-15T02:34:57.312Z,4.17
2023-03-15T02:37:23.767Z,7.15
2023-03-15T02:39:50.126Z,7.95
2023-03-15T02:42:17.586Z,10.32
2023-03-15T02:44:45.282Z,5.38
2023-03-15T02:47:19.943Z,4.80
2023-03-15T02:49:50.951Z,9.35
2023-03-15T02:52:17.592Z,4.30
2023-03-15T02:54:44.230Z,5.50
2023-03-15T02:57:12.905Z,7.20
2023-03-15T02:59:39.834Z,7.47
2023-03-15T03:02:06.349Z,7.10
2023-03-15T03:04:32.727Z,7.05
2023-03-15T03:06:59.122Z,5.40
2023-03-15T03:09:25.817Z,8.13
2023-03-15T03:11:52.216Z,6.70
2023-03-15T03:14:18.594Z,7.50
2023-03-15T03:16:45.169Z,9.40
2023-03-15T03:19:14.424Z,8.55
2023-03-15T03:21:43.321Z,7.80
2023-03-15T03:24:10.837Z,8.23
2023-03-15T03:26:37.752Z,6.28
2023-03-15T03:29:07.738Z,6.95
2023-03-15T03:31:34.087Z,9.60
2023-03-15T03:34:00.457Z,10.32
2023-03-15T03:36:26.859Z,11.13
2023-03-15T03:38:53.742Z,8.32
2023-03-15T03:41:21.252Z,8.77
2023-03-15T03:43:47.775Z,10.48
2023-03-15T03:46:14.217Z,11.23
2023-03-15T03:48:40.641Z,11.73
2023-03-15T03:51:07.253Z,11.90
2023-03-15T03:53:33.644Z,10.18
2023-03-15T03:56:00.038Z,9.98
2023-03-15T03:58:26.413Z,10.68
2023-03-15T04:00:55.361Z,11.30
2023-03-15T04:03:27.148Z,10.07
2023-03-15T04:05:58.252Z,10.90
2023-03-15T04:08:26.669Z,13.30
2023-03-15T04:10:54.425Z,10.25
2023-03-15T04:13:22.267Z,12.17
2023-03-15T04:15:48.865Z,10.70
2023-03-15T04:18:15.640Z,10.95
2023-03-15T04:20:46.761Z,9.00
2023-03-15T04:23:14.283Z,14.57
2023-03-15T04:25:40.649Z,11.13
2023-03-15T04:28:10.603Z,11.13
2023-03-15T04:30:37.440Z,9.50
2023-03-15T04:33:04.093Z,16.02
2023-03-15T04:35:35.134Z,13.15
2023-03-15T04:38:01.870Z,10.43
2023-03-15T04:40:28.454Z,11.95
2023-03-15T04:42:55.442Z,9.50
2023-03-15T04:45:26.023Z,10.85
2023-03-15T04:47:53.133Z,11.90
2023-03-15T04:50:21.211Z,8.50
2023-03-15T04:52:48.531Z,9.35
2023-03-15T04:55:15.033Z,9.63
2023-03-15T04:57:41.398Z,9.82
2023-03-15T05:00:10.134Z,12.95
2023-03-15T05:02:39.985Z,10.23
2023-03-15T05:05:10.274Z,8.50
2023-03-15T05:07:37.292Z,9.77
2023-03-15T05:10:05.189Z,8.70
2023-03-15T05:12:32.021Z,11.07
2023-03-15T05:14:58.409Z,8.43
2023-03-15T05:17:24.947Z,10.80
2023-03-15T05:19:51.784Z,8.95
2023-03-15T05:22:18.949Z,10.60
2023-03-15T05:24:45.341Z,9.52
2023-03-15T05:27:13.479Z,10.07
2023-03-15T05:29:39.852Z,8.57
2023-03-15T05:32:06.465Z,9.13
2023-03-15T05:34:32.817Z,10.43
2023-03-15T05:36:59.837Z,11.95
2023-03-15T05:39:26.327Z,13.03
2023-03-15T05:41:52.746Z,12.02
2023-03-15T05:44:19.172Z,9.05
2023-03-15T05:46:45.545Z,7.75
2023-03-15T05:49:12.115Z,7.10
2023-03-15T05:51:38.474Z,9.20
2023-03-15T05:54:04.884Z,6.95
2023-03-15T05:56:31.292Z,8.60
2023-03-15T05:58:57.667Z,6.60
2023-03-15T06:01:24.029Z,9.13
2023-03-15T06:03:50.585Z,5.60
2023-03-15T06:06:16.985Z,8.60
2023-03-15T06:08:43.346Z,8.55
2023-03-15T06:11:09.675Z,7.78
2023-03-15T06:13:36.073Z,7.18
2023-03-15T06:16:02.441Z,7.20
2023-03-15T06:18:28.790Z,7.85
2023-03-15T06:20:55.211Z,5.15
2023-03-15T06:23:21.560Z,8.25
2023-03-15T06:25:48.051Z,5.85
2023-03-15T06:28:14.488Z,8.23
2023-03-15T06:30:41.577Z,8.02
2023-03-15T06:33:08.033Z,7.03
2023-03-15T06:35:34.470Z,7.07
2023-03-15T06:38:01.110Z,11.93
2023-03-15T06:40:27.526Z,7.87
2023-03-15T06:42:54.582Z,8.15
2023-03-15T06:45:21.009Z,8.10
2023-03-15T06:47:47.368Z,8.95
2023-03-15T06:50:13.728Z,7.07
2023-03-15T06:52:40.121Z,6.27
2023-03-15T06:55:07.119Z,8.73
2023-03-15T06:57:33.570Z,5.38
2023-03-15T07:00:00.003Z,6.57
2023-03-15T07:02:26.796Z,4.97
2023-03-15T07:04:53.402Z,4.83
2023-03-15T07:07:19.740Z,4.93
2023-03-15T07:09:46.149Z,5.30
2023-03-15T07:12:12.729Z,8.88
2023-03-15T07:14:39.103Z,6.65
2023-03-15T07:17:05.472Z,7.43
2023-03-15T07:19:31.823Z,13.80
2023-03-15T07:21:58.150Z,7.30
2023-03-15T07:24:24.739Z,4.95
2023-03-15T07:26:56.127Z,5.25
2023-03-15T07:29:24.067Z,8.47
2023-03-15T07:31:51.096Z,10.35
2023-03-15T07:34:17.911Z,6.00
2023-03-15T07:36:44.330Z,7.18
2023-03-15T07:39:11.660Z,10.43
2023-03-15T07:41:38.053Z,8.67
2023-03-15T07:44:04.759Z,5.20
2023-03-15T07:46:31.220Z,7.60
2023-03-15T07:48:57.626Z,5.95
2023-03-15T07:51:24.049Z,4.28
2023-03-15T07:53:51.213Z,2.80
2023-03-15T07:56:17.569Z,3.80
2023-03-15T07:58:43.924Z,3.90
2023-03-15T08:01:10.401Z,6.63
2023-03-15T08:03:36.887Z,6.55
2023-03-15T08:06:03.349Z,4.90
2023-03-15T08:08:29.835Z,3.60
2023-03-15T08:10:56.862Z,4.70
2023-03-15T08:13:24.249Z,4.68
2023-03-15T08:15:50.663Z,4.32
2023-03-15T08:18:17.054Z,5.83
2023-03-15T08:20:43.445Z,6.95
2023-03-15T08:23:10.159Z,7.80
2023-03-15T08:25:40.657Z,4.15
2023-03-15T08:28:07.086Z,4.88
2023-03-15T08:30:33.432Z,4.50
2023-03-15T08:32:59.790Z,2.70
2023-03-15T08:35:26.230Z,3.53
2023-03-15T08:37:52.662Z,4.60
2023-03-15T08:40:24.035Z,5.35
2023-03-15T08:42:51.361Z,5.63
2023-03-15T08:45:18.126Z,3.13
2023-03-15T08:47:44.553Z,3.03
2023-03-15T08:50:15.653Z,3.75
2023-03-15T08:52:42.660Z,4.28
2023-03-15T08:55:10.297Z,3.70
2023-03-15T08:57:36.836Z,3.80
2023-03-15T09:00:09.009Z,2.80
2023-03-15T09:02:36.638Z,3.55
2023-03-15T09:05:06.948Z,2.42
2023-03-15T09:07:33.765Z,2.40
2023-03-15T09:10:00.140Z,3.38
2023-03-15T09:12:27.989Z,3.00
2023-03-15T09:14:54.350Z,4.88
2023-03-15T09:17:20.990Z,4.53
2023-03-15T09:19:47.343Z,3.83
2023-03-15T09:22:17.208Z,4.20
2023-03-15T09:24:51.769Z,2.80
2023-03-15T09:27:18.904Z,2.78
2023-03-15T09:29:45.315Z,3.33
2023-03-15T09:32:11.888Z,3.17
2023-03-15T09:34:41.865Z,2.97
2023-03-15T09:37:08.689Z,4.22
2023-03-15T09:39:35.063Z,2.42
2023-03-15T09:42:06.455Z,3.08
2023-03-15T09:44:44.182Z,3.67
2023-03-15T09:47:27.682Z,2.80
2023-03-15T09:50:13.067Z,3.17
2023-03-15T09:53:03.101Z,3.33
2023-03-15T09:55:29.759Z,2.88
2023-03-15T09:58:04.371Z,2.77
2023-03-15T10:00:44.387Z,3.65
2023-03-15T10:03:37.704Z,3.85
2023-03-15T10:06:18.447Z,4.47
2023-03-15T10:08:47.013Z,3.50
2023-03-15T10:11:36.205Z,4.40
2023-03-15T10:14:23.408Z,3.95
2023-03-15T10:16:51.953Z,3.70
2023-03-15T10:19:31.865Z,3.63
2023-03-15T10:22:13.109Z,5.53
2023-03-15T10:24:45.433Z,4.70
2023-03-15T10:27:24.192Z,3.63
2023-03-15T10:29:55.062Z,4.00
2023-03-15T10:32:26.757Z,3.67
2023-03-15T10:34:56.173Z,3.65
2023-03-15T10:37:24.961Z,3.47
2023-03-15T10:39:56.274Z,4.88
2023-03-15T10:42:31.534Z,4.20
2023-03-15T10:45:00.008Z,4.50
2023-03-15T10:47:27.280Z,6.20
2023-03-15T10:49:58.749Z,5.87
2023-03-15T10:52:31.715Z,5.03
2023-03-15T10:55:04.330Z,5.10
2023-03-15T10:57:39.083Z,5.57
2023-03-15T11:00:18.330Z,6.10
2023-03-15T11:02:50.915Z,4.80
2023-03-15T11:05:18.613Z,8.10
2023-03-15T11:08:16.031Z,5.72
2023-03-15T11:10:44.352Z,4.60
2023-03-15T11:13:12.321Z,6.40
2023-03-15T11:15:41.133Z,5.97
2023-03-15T11:18:18.410Z,6.30
2023-03-15T11:20:45.464Z,5.25
2023-03-15T11:23:20.385Z,6.00
2023-03-15T11:25:47.259Z,6.45
2023-03-15T11:28:27.426Z,5.63
2023-03-15T11:30:57.101Z,4.80
2023-03-15T11:33:37.719Z,5.97
2023-03-15T11:36:10.608Z,5.10
2023-03-15T11:38:43.925Z,4.95
2023-03-15T11:41:41.015Z,5.07
2023-03-15T11:44:37.671Z,3.83
2023-03-15T11:47:16.581Z,6.25
2023-03-15T11:49:54.570Z,5.70
2023-03-15T11:52:24.159Z,4.78
2023-03-15T11:54:54.264Z,6.73
2023-03-15T11:57:29.405Z,6.00
2023-03-15T11:59:57.502Z,4.32
2023-03-15T12:02:24.054Z,5.80
2023-03-15T12:04:51.354Z,3.63
2023-03-15T12:07:17.663Z,3.67
2023-03-15T12:10:11.098Z,3.45
2023-03-15T12:12:38.895Z,4.85
2023-03-15T12:15:14.379Z,5.43
2023-03-15T12:17:53.618Z,4.18
2023-03-15T12:20:34.491Z,4.97
2023-03-15T12:23:17.243Z,4.60
2023-03-15T12:25:55.029Z,5.32
2023-03-15T12:28:38.905Z,5.47
2023-03-15T12:31:09.075Z,4.93
2023-03-15T12:33:46.872Z,4.77
2023-03-15T12:36:36.948Z,4.35
2023-03-15T12:39:15.363Z,4.80
2023-03-15T12:41:48.233Z,7.93
2023-03-15T12:44:43.963Z,6.78
2023-03-15T12:47:12.392Z,4.63
2023-03-15T12:49:44.560Z,4.05
2023-03-15T12:52:10.868Z,5.00
2023-03-15T12:54:43.750Z,3.67
2023-03-15T12:57:12.481Z,3.67
2023-03-15T12:59:50.469Z,3.80
2023-03-15T13:02:35.911Z,4.18
2023-03-15T13:05:34.545Z,4.07
2023-03-15T13:08:23.822Z,3.50
2023-03-15T13:11:17.399Z,3.83
2023-03-15T13:14:08.617Z,3.30
2023-03-15T13:16:50.986Z,3.05
2023-03-15T13:19:25.509Z,3.70
2023-03-15T13:22:03.811Z,3.35
2023-03-15T13:24:59.579Z,3.60
2023-03-15T13:27:25.867Z,3.73
2023-03-15T13:29:52.263Z,3.72
2023-03-15T13:32:22.119Z,4.95
2023-03-15T13:34:49.278Z,5.32
2023-03-15T13:37:21.734Z,4.00
2023-03-15T13:39:56.755Z,5.27
2023-03-15T13:42:24.525Z,6.57
2023-03-15T13:45:05.785Z,4.05
2023-03-15T13:47:33.782Z,3.95
2023-03-15T13:50:04.433Z,3.20
2023-03-15T13:52:31.077Z,3.13
2023-03-15T13:54:58.192Z,3.53
2023-03-15T13:57:24.545Z,2.45
2023-03-15T13:59:56.483Z,4.93
2023-03-15T14:02:25.652Z,2.83
2023-03-15T14:04:56.887Z,5.17
2023-03-15T14:07:33.880Z,6.25
2023-03-15T14:10:18.597Z,3.50
2023-03-15T14:12:46.100Z,4.32
2023-03-15T14:15:17.782Z,5.85
2023-03-15T14:18:04.696Z,4.33
2023-03-15T14:20:37.723Z,5.28
2023-03-15T14:23:05.872Z,4.80
2023-03-15T14:25:36.190Z,4.95
2023-03-15T14:28:04.635Z,4.85
2023-03-15T14:30:35.110Z,3.33
2023-03-15T14:33:04.693Z,5.43
2023-03-15T14:35:41.906Z,4.03
2023-03-15T14:38:25.864Z,3.92
2023-03-15T14:40:53.817Z,4.80
2023-03-15T14:43:20.184Z,5.10
2023-03-15T14:45:48.665Z,6.25
2023-03-15T14:48:28.185Z,5.82
2023-03-15T14:50:55.720Z,4.35
2023-03-15T14:53:26.195Z,3.78
2023-03-15T14:55:52.570Z,4.07
2023-03-15T14:58:21.500Z,4.50
2023-03-15T15:00:51.090Z,4.75
2023-03-15T15:03:25.572Z,5.25
2023-03-15T15:05:51.990Z,5.18
2023-03-15T15:08:22.187Z,7.17
2023-03-15T15:10:50.789Z,6.35
2023-03-15T15:13:23.299Z,4.82
2023-03-15T15:15:55.706Z,3.95
2023-03-15T15:18:25.586Z,3.58
2023-03-15T15:20:55.509Z,2.70
2023-03-15T15:23:26.932Z,3.75
2023-03-15T15:25:59.891Z,5.28
2023-03-15T15:28:35.308Z,2.67
2023-03-15T15:31:03.331Z,5.00
2023-03-15T15:33:29.697Z,3.30
2023-03-15T15:35:57.677Z,4.50
2023-03-15T15:38:30.828Z,3.60
2023-03-15T15:40:57.180Z,2.55
2023-03-15T15:43:23.516Z,2.70
2023-03-15T15:45:49.883Z,3.70
2023-03-15T15:48:16.301Z,3.33
2023-03-15T15:50:42.745Z,3.88
2023-03-15T15:53:16.280Z,3.38
2023-03-15T15:55:44.217Z,2.60
2023-03-15T15:58:12.249Z,4.77
2023-03-15T16:00:38.622Z,3.13
2023-03-15T16:03:14.854Z,4.20
2023-03-15T16:05:41.747Z,4.43
2023-03-15T16:08:22.352Z,3.80
2023-03-15T16:10:48.925Z,3.87
2023-03-15T16:13:15.355Z,4.72
2023-03-15T16:15:41.754Z,3.05
2023-03-15T16:18:12.100Z,3.53
2023-03-15T16:20:40.044Z,6.65
2023-03-15T16:23:06.653Z,4.60
2023-03-15T16:25:35.923Z,4.55
2023-03-15T16:28:03.892Z,3.42
2023-03-15T16:30:33.018Z,3.05
2023-03-15T16:32:59.429Z,3.90
2023-03-15T16:35:34.986Z,3.03
2023-03-15T16:38:04.984Z,3.22
2023-03-15T16:40:35.404Z,3.03
2023-03-15T16:43:02.021Z,2.97
2023-03-15T16:45:28.497Z,2.60
2023-03-15T16:47:56.317Z,2.60
2023-03-15T16:50:23.194Z,3.33
2023-03-15T16:52:54.229Z,4.72
2023-03-15T16:55:26.425Z,3.42
2023-03-15T16:57:53.043Z,3.35
2023-03-15T17:00:20.735Z,6.33
2023-03-15T17:02:54.232Z,4.95
2023-03-15T17:05:21.241Z,3.72
2023-03-15T17:07:49.349Z,4.15
2023-03-15T17:10:25.110Z,3.10
2023-03-15T17:12:52.934Z,3.90
2023-03-15T17:15:21.714Z,4.90
2023-03-15T17:17:48.858Z,5.10
2023-03-15T17:20:21.792Z,7.57
2023-03-15T17:22:49.983Z,5.10
2023-03-15T17:25:17.335Z,7.87
2023-03-15T17:27:46.151Z,6.50
2023-03-15T17:30:24.925Z,7.93
2023-03-15T17:32:51.890Z,7.93
2023-03-15T17:35:19.988Z,8.50
2023-03-15T17:37:47.305Z,6.77
2023-03-15T17:40:28.275Z,11.35
2023-03-15T17:42:56.986Z,8.45
2023-03-15T17:45:26.139Z,7.65
2023-03-15T17:47:54.031Z,5.75
2023-03-15T17:50:22.486Z,5.80
2023-03-15T17:52:54.204Z,5.85
2023-03-15T17:55:22.673Z,5.97
2023-03-15T17:57:55.012Z,5.57
2023-03-15T18:00:22.510Z,6.70
2023-03-15T18:02:55.598Z,4.60
2023-03-15T18:05:25.225Z,5.57
2023-03-15T18:07:58.697Z,5.68
2023-03-15T18:10:30.463Z,5.78
2023-03-15T18:12:56.801Z,9.82
2023-03-15T18:15:23.867Z,10.30
2023-03-15T18:17:50.756Z,9.43
2023-03-15T18:20:18.243Z,8.30
2023-03-15T18:22:44.604Z,8.25
2023-03-15T18:25:21.632Z,10.10
2023-03-15T18:27:49.108Z,6.50
2023-03-15T18:30:18.302Z,7.07
2023-03-15T18:32:46.948Z,9.63
2023-03-15T18:35:22.109Z,8.82
2023-03-15T18:37:48.851Z,9.57
2023-03-15T18:40:18.013Z,6.63
2023-03-15T18:42:44.839Z,10.77
2023-03-15T18:45:29.533Z,11.43
2023-03-15T18:47:56.737Z,21.13
2023-03-15T18:50:23.315Z,27.27
2023-03-15T18:52:49.707Z,39.80
2023-03-15T18:55:18.237Z,24.70
2023-03-15T18:57:46.055Z,24.55
2023-03-15T19:00:15.732Z,20.75
2023-03-15T19:02:44.652Z,18.08
2023-03-15T19:05:13.561Z,11.30
2023-03-15T19:07:40.794Z,12.80
2023-03-15T19:10:10.822Z,22.25
2023-03-15T19:12:37.495Z,40.25
2023-03-15T19:15:05.687Z,36.83
2023-03-15T19:17:32.259Z,31.67
2023-03-15T19:19:58.606Z,24.35
2023-03-15T19:22:26.436Z,27.92
2023-03-15T19:24:52.802Z,16.92
2023-03-15T19:27:19.658Z,17.58
2023-03-15T19:29:46.004Z,12.30
2023-03-15T19:32:12.384Z,18.98
2023-03-15T19:34:38.768Z,20.75
2023-03-15T19:37:05.310Z,13.30
2023-03-15T19:39:31.674Z,19.58
2023-03-15T19:41:58.044Z,23.50
2023-03-15T19:44:24.426Z,29.15
2023-03-15T19:46:51.128Z,29.63
2023-03-15T19:49:17.651Z,28.10
2023-03-15T19:51:44.000Z,27.27
2023-03-15T19:54:10.567Z,18.83
2023-03-15T19:56:37.031Z,14.30
2023-03-15T19:59:04.367Z,13.27
2023-03-15T20:01:32.274Z,14.80
2023-03-15T20:03:59.170Z,20.88
2023-03-15T20:06:25.571Z,18.30
2023-03-15T20:08:51.980Z,23.70
2023-03-15T20:11:25.005Z,20.08
2023-03-15T20:13:52.479Z,14.10
2023-03-15T20:16:20.851Z,13.00
2023-03-15T20:18:48.707Z,15.17
2023-03-15T20:21:15.044Z,16.58
2023-03-15T20:23:41.827Z,18.10
2023-03-15T20:26:16.698Z,15.43
2023-03-15T20:28:44.200Z,15.90
2023-03-15T20:31:16.078Z,14.30
2023-03-15T20:33:43.741Z,13.70
2023-03-15T20:36:11.091Z,9.20
2023-03-15T20:38:37.989Z,9.75
2023-03-15T20:41:05.406Z,9.80
2023-03-15T20:43:32.953Z,14.07
2023-03-15T20:46:01.660Z,13.25
2023-03-15T20:48:30.011Z,15.05
2023-03-15T20:51:00.125Z,13.30
2023-03-15T20:53:27.513Z,18.73
2023-03-15T20:55:53.879Z,16.87
2023-03-15T20:58:21.321Z,14.88
2023-03-15T21:00:47.721Z,13.70
2023-03-15T21:03:15.729Z,15.80
2023-03-15T21:05:44.310Z,18.95
2023-03-15T21:08:11.429Z,21.73
2023-03-15T21:10:38.398Z,17.98
2023-03-15T21:13:10.980Z,18.75
2023-03-15T21:15:46.280Z,19.70
2023-03-15T21:18:14.224Z,18.15
2023-03-15T21:20:41.039Z,16.50
2023-03-15T21:23:07.767Z,17.85
2023-03-15T21:25:34.169Z,17.35
2023-03-15T21:28:00.526Z,20.25
2023-03-15T21:30:27.062Z,25.17
2023-03-15T21:32:53.514Z,22.63
2023-03-15T21:35:21.858Z,22.35
2023-03-15T21:37:48.328Z,22.55
2023-03-15T21:40:15.466Z,26.45
2023-03-15T21:42:43.394Z,25.55
2023-03-15T21:45:11.920Z,29.90
2023-03-15T21:47:38.331Z,26.80
2023-03-15T21:50:05.209Z,20.65
2023-03-15T21:52:31.589Z,14.70
2023-03-15T21:54:57.965Z,13.63
2023-03-15T21:57:24.355Z,14.67
2023-03-15T21:59:51.019Z,17.63
2023-03-15T22:02:17.380Z,16.77
2023-03-15T22:04:43.800Z,18.52
2023-03-15T22:07:11.200Z,10.93
2023-03-15T22:09:38.024Z,11.97
2023-03-15T22:12:05.424Z,11.38
2023-03-15T22:14:31.818Z,12.07
2023-03-15T22:16:58.241Z,11.93
2023-03-15T22:19:24.988Z,16.17
2023-03-15T22:21:51.331Z,16.40
2023-03-15T22:24:17.706Z,13.50
2023-03-15T22:26:44.155Z,14.23
2023-03-15T22:29:10.949Z,13.75
2023-03-15T22:31:38.105Z,13.20
2023-03-15T22:34:05.363Z,11.47
2023-03-15T22:36:34.443Z,9.30
2023-03-15T22:39:01.431Z,10.13
2023-03-15T22:41:27.873Z,9.20
2023-03-15T22:43:55.182Z,10.25
2023-03-15T22:46:21.601Z,12.60
2023-03-15T22:48:47.959Z,8.80
2023-03-15T22:51:15.758Z,9.57
2023-03-15T22:53:42.595Z,7.60
2023-03-15T22:56:09.006Z,8.75
2023-03-15T22:58:35.880Z,10.50
2023-03-15T23:01:02.750Z,8.35
2023-03-15T23:03:29.365Z,8.27
2023-03-15T23:05:56.121Z,9.40
2023-03-15T23:08:22.989Z,8.18
2023-03-15T23:10:49.743Z,7.00
2023-03-15T23:13:16.191Z,7.35
2023-03-15T23:15:43.419Z,7.10
2023-03-15T23:18:10.016Z,9.57
2023-03-15T23:20:37.556Z,8.25
2023-03-15T23:23:03.899Z,7.13
2023-03-15T23:25:30.296Z,8.27
2023-03-15T23:27:56.976Z,7.57
2023-03-15T23:30:23.487Z,6.00
2023-03-15T23:32:52.279Z,7.57
2023-03-15T23:35:18.849Z,8.33
2023-03-15T23:37:45.181Z,6.18
2023-03-15T23:40:14.204Z,6.15
2023-03-15T23:42:41.943Z,7.07
2023-03-15T23:45:09.463Z,5.97
2023-03-15T23:47:36.058Z,7.20
2023-03-15T23:50:02.458Z,9.07
2023-03-15T23:52:29.007Z,6.18
2023-03-15T23:54:55.549Z,7.45
2023-03-15T23:57:21.970Z,7.30
2023-03-15T23:59:48.464Z,6.60
